createdAt,value
2022-12-18T00:02:02.343Z,19.67
2022-12-18T00:04:32.712Z,19.50
2022-12-18T00:07:02.963Z,20.40
2022-12-18T00:09:40.000Z,21.15
2022-12-18T00:14:49.054Z,20.20
2022-12-18T00:17:19.312Z,26.80
2022-12-18T00:19:49.576Z,24.38
2022-12-18T00:22:19.876Z,20.98
2022-12-18T00:24:50.388Z,23.00
2022-12-18T00:27:20.626Z,20.33
2022-12-18T00:29:53.476Z,21.15
2022-12-18T00:32:23.759Z,19.48
2022-12-18T00:34:54.033Z,18.45
2022-12-18T00:37:24.259Z,18.85
2022-12-18T00:39:54.924Z,20.65
2022-12-18T00:42:37.597Z,19.48
2022-12-18T00:45:13.156Z,20.02
2022-12-18T00:47:43.878Z,19.60
2022-12-18T00:50:14.710Z,19.15
2022-12-18T00:52:45.327Z,20.83
2022-12-18T00:55:16.085Z,20.42
2022-12-18T00:57:46.659Z,19.58
2022-12-18T01:00:20.135Z,20.15
2022-12-18T01:02:50.631Z,18.33
2022-12-18T01:05:21.252Z,20.92
2022-12-18T01:07:52.032Z,19.63
2022-12-18T01:10:24.044Z,19.00
2022-12-18T01:12:54.617Z,19.77
2022-12-18T01:15:27.535Z,19.05
2022-12-18T01:17:58.166Z,19.58
2022-12-18T01:20:30.822Z,20.67
2022-12-18T01:23:01.766Z,19.80
2022-12-18T01:25:32.295Z,20.80
2022-12-18T01:28:02.774Z,18.27
2022-12-18T01:30:35.674Z,19.23
2022-12-18T01:33:07.669Z,19.67
2022-12-18T01:35:45.442Z,17.30
2022-12-18T01:38:15.793Z,17.60
2022-12-18T01:40:46.077Z,17.08
2022-12-18T01:43:16.270Z,16.90
2022-12-18T01:45:49.235Z,16.40
2022-12-18T01:48:19.539Z,17.15
2022-12-18T01:50:51.242Z,17.45
2022-12-18T01:53:25.659Z,17.48
2022-12-18T01:55:57.660Z,18.48
2022-12-18T01:58:34.748Z,16.75
2022-12-18T02:01:08.672Z,16.65
2022-12-18T02:03:39.545Z,15.73
2022-12-18T02:06:16.894Z,17.70
2022-12-18T02:09:01.862Z,18.75
2022-12-18T02:11:42.852Z,18.52
2022-12-18T02:14:27.485Z,18.67
2022-12-18T02:17:06.955Z,18.65
2022-12-18T02:20:06.210Z,18.15
2022-12-18T02:22:47.600Z,17.95
2022-12-18T02:25:28.422Z,18.58
2022-12-18T02:28:05.362Z,17.42
2022-12-18T02:30:39.690Z,17.05
2022-12-18T02:33:14.991Z,17.33
2022-12-18T02:35:50.803Z,18.55
2022-12-18T02:38:22.205Z,18.13
2022-12-18T02:40:57.420Z,17.20
2022-12-18T02:43:30.422Z,17.40
2022-12-18T02:46:04.992Z,16.73
2022-12-18T02:48:38.177Z,16.85
2022-12-18T02:51:17.780Z,17.50
2022-12-18T02:53:57.369Z,17.17
2022-12-18T02:59:06.962Z,15.90
2022-12-18T03:01:55.217Z,16.77
2022-12-18T03:04:30.788Z,17.30
2022-12-18T03:07:05.511Z,19.15
2022-12-18T03:09:40.435Z,17.90
2022-12-18T03:12:27.406Z,19.25
2022-12-18T03:15:06.376Z,19.20
2022-12-18T03:17:37.804Z,19.30
2022-12-18T03:20:12.838Z,18.88
2022-12-18T03:22:46.722Z,20.92
2022-12-18T03:25:20.728Z,19.63
2022-12-18T03:27:56.019Z,18.85
2022-12-18T03:30:32.559Z,18.00
2022-12-18T03:33:09.017Z,18.08
2022-12-18T03:35:45.366Z,17.60
2022-12-18T03:38:17.632Z,18.45
2022-12-18T03:41:08.767Z,17.83
2022-12-18T03:43:56.578Z,18.33
2022-12-18T03:46:34.889Z,17.65
2022-12-18T03:49:12.715Z,18.35
2022-12-18T03:51:51.854Z,16.77
2022-12-18T03:54:22.974Z,18.98
2022-12-18T03:57:09.394Z,17.98
2022-12-18T03:59:42.208Z,18.70
2022-12-18T04:02:15.736Z,18.23
2022-12-18T04:04:46.903Z,17.33
2022-12-18T04:07:19.726Z,18.33
2022-12-18T04:09:52.195Z,18.83
2022-12-18T04:12:22.655Z,18.38
2022-12-18T04:14:53.026Z,19.60
2022-12-18T04:17:26.304Z,18.50
2022-12-18T04:19:56.952Z,19.50
2022-12-18T04:22:28.813Z,19.48
2022-12-18T04:25:03.059Z,18.30
2022-12-18T04:27:40.056Z,16.77
2022-12-18T04:30:12.195Z,19.00
2022-12-18T04:32:51.926Z,20.48
2022-12-18T04:35:23.476Z,19.30
2022-12-18T04:37:53.809Z,18.85
2022-12-18T04:40:24.136Z,18.65
2022-12-18T04:42:55.710Z,18.50
2022-12-18T04:45:25.991Z,18.00
2022-12-18T04:48:00.671Z,20.27
2022-12-18T04:50:31.566Z,19.27
2022-12-18T04:53:02.151Z,19.27
2022-12-18T04:55:32.622Z,18.60
2022-12-18T04:58:02.974Z,18.05
2022-12-18T05:00:33.255Z,18.60
2022-12-18T05:03:07.611Z,18.50
2022-12-18T05:05:39.479Z,16.48
2022-12-18T05:08:09.787Z,18.27
2022-12-18T05:10:41.176Z,17.75
2022-12-18T05:13:12.033Z,19.23
2022-12-18T05:15:42.964Z,17.92
2022-12-18T05:18:15.905Z,18.85
2022-12-18T05:20:46.095Z,18.13
2022-12-18T05:23:16.393Z,17.15
2022-12-18T05:25:46.818Z,17.27
2022-12-18T05:28:17.096Z,17.15
2022-12-18T05:30:51.297Z,18.45
2022-12-18T05:33:25.910Z,16.83
2022-12-18T05:35:57.750Z,16.20
2022-12-18T05:38:30.162Z,16.15
2022-12-18T05:41:01.102Z,16.15
2022-12-18T05:43:31.920Z,17.30
2022-12-18T05:46:06.860Z,16.63
2022-12-18T05:48:39.835Z,16.73
2022-12-18T05:51:12.389Z,15.75
2022-12-18T05:53:43.052Z,16.90
2022-12-18T05:56:15.796Z,16.42
2022-12-18T05:58:46.312Z,18.13
2022-12-18T06:01:18.963Z,17.55
2022-12-18T06:03:51.849Z,19.00
2022-12-18T06:06:24.440Z,16.42
2022-12-18T06:08:55.377Z,17.55
2022-12-18T06:11:27.322Z,16.73
2022-12-18T06:14:00.341Z,18.65
2022-12-18T06:16:31.543Z,17.77
2022-12-18T06:19:07.303Z,15.60
2022-12-18T06:21:38.173Z,17.02
2022-12-18T06:24:09.492Z,17.20
2022-12-18T06:26:42.335Z,15.48
2022-12-18T06:29:12.579Z,15.73
2022-12-18T06:31:42.973Z,17.35
2022-12-18T06:34:16.174Z,16.20
2022-12-18T06:36:46.501Z,15.18
2022-12-18T06:39:16.846Z,15.65
2022-12-18T06:41:47.074Z,15.07
2022-12-18T06:44:17.369Z,15.65
2022-12-18T06:46:47.578Z,15.07
2022-12-18T06:49:20.511Z,14.48
2022-12-18T06:51:51.156Z,16.90
2022-12-18T06:54:21.416Z,15.80
2022-12-18T06:56:52.678Z,16.20
2022-12-18T06:59:23.266Z,15.45
2022-12-18T07:01:53.688Z,14.85
2022-12-18T07:04:30.848Z,14.63
2022-12-18T07:07:01.323Z,15.45
2022-12-18T07:09:31.569Z,16.77
2022-12-18T07:12:02.049Z,15.43
2022-12-18T07:14:32.384Z,17.60
2022-12-18T07:17:02.802Z,15.90
2022-12-18T07:19:36.230Z,16.60
2022-12-18T07:22:06.577Z,15.10
2022-12-18T07:24:37.348Z,15.00
2022-12-18T07:27:08.009Z,16.40
2022-12-18T07:29:38.868Z,16.80
2022-12-18T07:32:10.414Z,15.40
2022-12-18T07:34:43.832Z,16.88
2022-12-18T07:37:14.166Z,15.70
2022-12-18T07:39:45.505Z,17.27
2022-12-18T07:42:28.879Z,17.05
2022-12-18T07:44:59.116Z,16.88
2022-12-18T07:47:29.427Z,17.13
2022-12-18T07:50:03.121Z,16.83
2022-12-18T07:52:33.439Z,17.23
2022-12-18T07:55:04.643Z,17.58
2022-12-18T07:57:49.984Z,17.27
2022-12-18T08:00:22.119Z,17.08
2022-12-18T08:02:52.583Z,15.25
2022-12-18T08:05:25.821Z,17.42
2022-12-18T08:07:56.191Z,17.23
2022-12-18T08:10:26.680Z,17.92
2022-12-18T08:13:01.413Z,17.30
2022-12-18T08:15:34.796Z,18.35
2022-12-18T08:18:06.526Z,16.80
2022-12-18T08:20:41.008Z,17.58
2022-12-18T08:23:12.770Z,17.17
2022-12-18T08:25:43.193Z,17.20
2022-12-18T08:28:14.104Z,17.25
2022-12-18T08:30:44.949Z,16.10
2022-12-18T08:33:15.771Z,17.92
2022-12-18T08:35:48.921Z,16.40
2022-12-18T08:38:19.319Z,17.23
2022-12-18T08:40:50.526Z,18.08
2022-12-18T08:43:33.210Z,16.40
2022-12-18T08:46:03.734Z,15.95
2022-12-18T08:48:34.315Z,17.00
2022-12-18T08:51:07.816Z,16.70
2022-12-18T08:53:38.795Z,18.67
2022-12-18T08:56:11.201Z,17.55
2022-12-18T08:58:41.547Z,18.58
2022-12-18T09:01:14.858Z,17.83
2022-12-18T09:03:45.633Z,16.92
2022-12-18T09:06:21.908Z,18.95
2022-12-18T09:08:52.915Z,16.73
2022-12-18T09:11:27.130Z,16.63
2022-12-18T09:13:59.264Z,17.73
2022-12-18T09:16:33.039Z,16.70
2022-12-18T09:19:04.043Z,16.63
2022-12-18T09:21:43.397Z,16.33
2022-12-18T09:24:17.778Z,16.55
2022-12-18T09:26:48.143Z,17.92
2022-12-18T09:29:18.912Z,18.48
2022-12-18T09:31:50.543Z,16.00
2022-12-18T09:34:22.146Z,17.17
2022-12-18T09:36:55.516Z,17.60
2022-12-18T09:39:26.064Z,16.92
2022-12-18T09:41:59.701Z,20.60
2022-12-18T09:44:32.902Z,18.55
2022-12-18T09:47:10.639Z,19.67
2022-12-18T09:49:45.941Z,20.60
2022-12-18T09:52:25.670Z,23.35
2022-12-18T09:55:00.841Z,19.73
2022-12-18T09:57:35.180Z,17.27
2022-12-18T10:00:12.675Z,18.75
2022-12-18T10:02:42.963Z,19.02
2022-12-18T10:05:17.359Z,18.10
2022-12-18T10:07:58.267Z,19.67
2022-12-18T10:10:40.307Z,19.70
2022-12-18T10:13:19.446Z,19.55
2022-12-18T10:16:02.777Z,20.17
2022-12-18T10:19:00.989Z,19.55
2022-12-18T10:21:40.483Z,18.33
2022-12-18T10:24:22.524Z,17.92
2022-12-18T10:26:52.905Z,24.77
2022-12-18T10:29:23.927Z,20.08
2022-12-18T10:31:54.183Z,18.33
2022-12-18T10:34:24.721Z,19.95
2022-12-18T10:36:55.145Z,19.75
2022-12-18T10:39:29.000Z,19.00
2022-12-18T10:42:14.929Z,18.92
2022-12-18T10:44:45.328Z,20.10
2022-12-18T10:47:19.282Z,19.00
2022-12-18T10:49:54.022Z,18.98
2022-12-18T10:52:26.571Z,18.55
2022-12-18T10:55:02.855Z,18.05
2022-12-18T10:57:38.709Z,17.45
2022-12-18T11:00:26.263Z,19.57
2022-12-18T11:02:57.227Z,18.85
2022-12-18T11:05:34.346Z,19.55
2022-12-18T11:08:05.300Z,19.23
2022-12-18T11:10:42.613Z,19.38
2022-12-18T11:13:17.707Z,19.10
2022-12-18T11:15:48.764Z,18.48
2022-12-18T11:18:26.215Z,19.23
2022-12-18T11:20:59.136Z,18.08
2022-12-18T11:23:30.659Z,18.77
2022-12-18T11:26:07.142Z,18.85
2022-12-18T11:28:44.012Z,18.35
2022-12-18T11:31:28.667Z,18.10
2022-12-18T11:34:27.972Z,17.98
2022-12-18T11:36:57.144Z,17.85
2022-12-18T11:39:37.298Z,19.45
2022-12-18T11:42:16.435Z,18.10
2022-12-18T11:44:52.181Z,18.80
2022-12-18T11:47:33.149Z,18.20
2022-12-18T11:50:06.445Z,17.42
2022-12-18T11:52:42.200Z,19.95
2022-12-18T11:55:17.323Z,18.00
2022-12-18T11:57:59.027Z,20.85
2022-12-18T12:00:30.539Z,20.83
2022-12-18T12:03:22.487Z,18.42
2022-12-18T12:06:05.908Z,18.90
2022-12-18T12:08:48.394Z,17.77
2022-12-18T12:11:31.659Z,18.30
2022-12-18T12:14:24.721Z,20.42
2022-12-18T12:17:01.536Z,19.85
2022-12-18T12:22:16.723Z,18.30
2022-12-18T12:25:00.967Z,20.10
2022-12-18T12:27:43.330Z,17.92
2022-12-18T12:30:23.143Z,19.08
2022-12-18T12:33:18.556Z,18.95
2022-12-18T12:36:01.096Z,18.30
2022-12-18T12:38:35.940Z,19.77
2022-12-18T12:41:30.475Z,18.83
2022-12-18T12:44:03.074Z,18.63
2022-12-18T12:46:41.226Z,21.17
2022-12-18T12:49:16.649Z,18.48
2022-12-18T12:51:49.867Z,19.17
2022-12-18T12:54:23.771Z,19.40
2022-12-18T12:57:01.872Z,19.02
2022-12-18T12:59:42.213Z,18.20
2022-12-18T13:02:26.971Z,19.83
2022-12-18T13:05:05.380Z,19.70
2022-12-18T13:07:42.946Z,18.42
2022-12-18T13:10:29.967Z,20.38
2022-12-18T13:13:00.483Z,19.83
2022-12-18T13:15:41.240Z,20.25
2022-12-18T13:18:23.694Z,19.42
2022-12-18T13:20:59.840Z,18.67
2022-12-18T13:23:35.209Z,19.35
2022-12-18T13:26:34.152Z,18.45
2022-12-18T13:29:08.082Z,19.80
2022-12-18T13:32:22.540Z,20.52
2022-12-18T13:35:42.334Z,18.83
2022-12-18T13:38:26.030Z,19.20
2022-12-18T13:41:01.518Z,19.95
2022-12-18T13:43:44.650Z,19.60
2022-12-18T13:46:24.680Z,19.08
2022-12-18T13:49:00.543Z,19.45
2022-12-18T13:51:35.984Z,18.77
2022-12-18T13:54:17.756Z,21.17
2022-12-18T13:56:50.857Z,19.83
2022-12-18T13:59:24.708Z,21.13
2022-12-18T14:01:58.391Z,19.63
2022-12-18T14:04:31.887Z,22.58
2022-12-18T14:07:08.501Z,21.45
2022-12-18T14:09:41.083Z,20.47
2022-12-18T14:12:32.151Z,21.33
2022-12-18T14:15:04.514Z,20.70
2022-12-18T14:17:36.095Z,21.25
2022-12-18T14:20:07.666Z,22.15
2022-12-18T14:22:40.662Z,22.25
2022-12-18T14:25:20.099Z,21.83
2022-12-18T14:27:52.118Z,20.67
2022-12-18T14:30:35.294Z,22.88
2022-12-18T14:33:07.732Z,22.85
2022-12-18T14:35:41.560Z,22.40
2022-12-18T14:38:30.132Z,19.98
2022-12-18T14:41:02.131Z,20.88
2022-12-18T14:43:33.979Z,21.33
2022-12-18T14:46:05.668Z,22.33
2022-12-18T14:48:42.634Z,22.27
2022-12-18T14:53:57.572Z,21.17
2022-12-18T14:56:30.326Z,21.25
2022-12-18T14:59:02.569Z,22.58
2022-12-18T15:01:36.761Z,22.63
2022-12-18T15:04:08.629Z,23.42
2022-12-18T15:06:40.995Z,24.73
2022-12-18T15:09:29.449Z,25.60
2022-12-18T15:12:01.005Z,22.10
2022-12-18T15:14:42.344Z,21.95
2022-12-18T15:17:21.417Z,21.40
2022-12-18T15:19:55.720Z,22.65
2022-12-18T15:22:31.451Z,22.65
2022-12-18T15:25:05.046Z,23.85
2022-12-18T15:27:38.749Z,22.63
2022-12-18T15:30:26.926Z,22.25
2022-12-18T15:33:21.078Z,21.75
2022-12-18T15:35:59.447Z,22.92
2022-12-18T15:38:29.779Z,20.38
2022-12-18T15:41:03.060Z,25.40
2022-12-18T15:43:37.432Z,17.75
2022-12-18T15:46:09.287Z,19.05
2022-12-18T15:48:43.072Z,18.55
2022-12-18T15:51:18.757Z,19.48
2022-12-18T15:53:50.083Z,19.10
2022-12-18T15:56:36.708Z,19.23
2022-12-18T15:59:12.682Z,18.67
2022-12-18T16:01:44.365Z,18.45
2022-12-18T16:04:16.620Z,16.35
2022-12-18T16:07:13.452Z,17.55
2022-12-18T16:09:37.183Z,17.48
2022-12-18T16:12:15.355Z,18.10
2022-12-18T16:14:45.611Z,17.23
2022-12-18T16:17:17.664Z,16.95
2022-12-18T16:19:48.417Z,17.15
2022-12-18T16:22:25.106Z,16.30
2022-12-18T16:24:56.576Z,16.65
2022-12-18T16:27:29.772Z,14.68
2022-12-18T16:30:00.070Z,14.75
2022-12-18T16:32:30.595Z,12.65
2022-12-18T16:35:04.054Z,10.98
2022-12-18T16:37:34.354Z,11.15
2022-12-18T16:40:04.575Z,14.63
2022-12-18T16:42:37.571Z,10.48
2022-12-18T16:45:09.381Z,11.32
2022-12-18T16:47:39.845Z,12.20
2022-12-18T16:50:12.259Z,9.95
2022-12-18T16:52:44.094Z,11.73
2022-12-18T16:55:14.406Z,10.90
2022-12-18T16:57:47.261Z,12.18
2022-12-18T17:00:19.137Z,14.25
2022-12-18T17:02:49.807Z,9.93
2022-12-18T17:05:20.522Z,11.10
2022-12-18T17:07:50.827Z,17.00
2022-12-18T17:10:21.366Z,11.00
2022-12-18T17:12:54.464Z,8.65
2022-12-18T17:15:24.998Z,12.30
2022-12-18T17:17:55.363Z,10.13
2022-12-18T17:20:27.339Z,7.63
2022-12-18T17:22:58.259Z,8.25
2022-12-18T17:25:30.189Z,8.48
2022-12-18T17:28:03.177Z,9.25
2022-12-18T17:30:33.906Z,8.32
2022-12-18T17:33:04.349Z,8.52
2022-12-18T17:35:34.720Z,8.15
2022-12-18T17:38:05.096Z,8.60
2022-12-18T17:40:36.382Z,7.38
2022-12-18T17:43:09.379Z,8.05
2022-12-18T17:45:40.228Z,9.25
2022-12-18T17:48:12.029Z,9.07
2022-12-18T17:50:44.304Z,8.70
2022-12-18T17:53:14.612Z,8.68
2022-12-18T17:55:44.925Z,9.10
2022-12-18T17:58:17.975Z,9.27
2022-12-18T18:00:48.799Z,8.82
2022-12-18T18:03:19.228Z,8.52
2022-12-18T18:05:50.244Z,8.48
2022-12-18T18:08:20.498Z,9.25
2022-12-18T18:10:51.518Z,8.32
2022-12-18T18:13:44.914Z,10.27
2022-12-18T18:16:17.214Z,9.00
2022-12-18T18:18:47.611Z,7.55
2022-12-18T18:21:17.897Z,9.32
2022-12-18T18:23:49.027Z,8.80
2022-12-18T18:26:23.115Z,8.27
2022-12-18T18:29:00.471Z,9.95
2022-12-18T18:31:40.211Z,9.13
2022-12-18T18:34:13.198Z,8.27
2022-12-18T18:36:43.730Z,8.82
2022-12-18T18:39:13.994Z,8.80
2022-12-18T18:41:48.061Z,10.13
2022-12-18T18:44:25.901Z,9.02
2022-12-18T18:46:57.804Z,8.93
2022-12-18T18:49:30.002Z,8.43
2022-12-18T18:52:01.708Z,11.00
2022-12-18T18:54:31.975Z,10.25
2022-12-18T18:59:55.185Z,8.82
2022-12-18T19:02:25.602Z,11.32
2022-12-18T19:04:57.430Z,10.60
2022-12-18T19:07:30.453Z,9.10
2022-12-18T19:10:04.943Z,8.48
2022-12-18T19:12:49.117Z,8.38
2022-12-18T19:15:22.249Z,7.65
2022-12-18T19:17:52.945Z,10.27
2022-12-18T19:20:23.331Z,9.38
2022-12-18T19:22:55.618Z,8.43
2022-12-18T19:25:38.452Z,9.82
2022-12-18T19:28:19.970Z,7.78
2022-12-18T19:30:58.823Z,10.02
2022-12-18T19:36:20.476Z,7.75
2022-12-18T19:38:52.142Z,8.10
2022-12-18T19:41:24.390Z,8.23
2022-12-18T19:43:56.543Z,8.25
2022-12-18T19:46:29.469Z,16.58
2022-12-18T19:49:02.722Z,8.90
2022-12-18T19:51:35.055Z,8.18
2022-12-18T19:54:05.495Z,7.32
2022-12-18T19:56:37.712Z,7.28
2022-12-18T19:59:09.752Z,9.60
2022-12-18T20:01:44.081Z,7.78
2022-12-18T20:04:15.537Z,8.57
2022-12-18T20:06:54.099Z,7.97
2022-12-18T20:09:26.232Z,11.60
2022-12-18T20:11:57.612Z,21.35
2022-12-18T20:14:28.118Z,8.93
2022-12-18T20:17:01.121Z,9.60
2022-12-18T20:19:32.432Z,12.13
2022-12-18T20:22:04.499Z,7.90
2022-12-18T20:24:34.842Z,12.00
2022-12-18T20:27:07.706Z,9.52
2022-12-18T20:29:43.527Z,7.25
2022-12-18T20:32:16.737Z,8.60
2022-12-18T20:34:47.035Z,9.80
2022-12-18T20:37:17.723Z,8.60
2022-12-18T20:39:51.673Z,6.72
2022-12-18T20:42:22.259Z,10.00
2022-12-18T20:44:52.627Z,8.07
2022-12-18T20:47:25.572Z,8.15
2022-12-18T20:49:56.530Z,6.57
2022-12-18T20:52:27.084Z,8.35
2022-12-18T20:54:57.383Z,9.40
2022-12-18T20:57:29.442Z,7.60
2022-12-18T20:59:59.868Z,6.10
2022-12-18T21:02:32.890Z,8.63
2022-12-18T21:05:03.287Z,8.00
2022-12-18T21:07:33.618Z,7.55
2022-12-18T21:10:03.979Z,8.45
2022-12-18T21:12:40.459Z,11.30
2022-12-18T21:15:25.316Z,8.88
2022-12-18T21:18:01.162Z,5.75
2022-12-18T21:20:31.451Z,6.93
2022-12-18T21:23:15.584Z,5.95
2022-12-18T21:25:49.447Z,6.30
2022-12-18T21:28:26.308Z,6.43
2022-12-18T21:30:56.678Z,6.85
2022-12-18T21:33:29.682Z,6.88
2022-12-18T21:35:59.992Z,5.80
2022-12-18T21:38:31.348Z,5.90
2022-12-18T21:41:01.695Z,8.15
2022-12-18T21:43:44.482Z,5.63
2022-12-18T21:46:14.830Z,6.32
2022-12-18T21:48:47.816Z,6.30
2022-12-18T21:51:18.257Z,4.88
2022-12-18T21:53:49.707Z,4.97
2022-12-18T21:56:20.068Z,6.05
2022-12-18T21:58:55.617Z,4.60
2022-12-18T22:01:37.447Z,5.30
2022-12-18T22:04:10.838Z,5.18
2022-12-18T22:06:41.487Z,8.38
2022-12-18T22:09:13.016Z,6.82
2022-12-18T22:11:43.782Z,6.45
2022-12-18T22:14:15.105Z,9.40
2022-12-18T22:16:48.854Z,7.97
2022-12-18T22:19:22.927Z,7.97
2022-12-18T22:21:53.540Z,6.75
2022-12-18T22:24:25.429Z,6.47
2022-12-18T22:27:01.775Z,6.55
2022-12-18T22:29:44.841Z,8.32
2022-12-18T22:32:20.395Z,6.03
2022-12-18T22:35:08.337Z,5.85
2022-12-18T22:37:40.847Z,8.15
2022-12-18T22:40:23.885Z,5.00
2022-12-18T22:42:56.492Z,5.15
2022-12-18T22:45:27.925Z,6.40
2022-12-18T22:47:58.294Z,5.20
2022-12-18T22:50:33.813Z,6.57
2022-12-18T22:53:04.115Z,6.22
2022-12-18T22:55:34.363Z,5.35
2022-12-18T22:58:04.683Z,7.22
2022-12-18T23:00:34.911Z,6.43
2022-12-18T23:03:05.251Z,5.40
2022-12-18T23:05:40.241Z,5.70
2022-12-18T23:08:10.472Z,6.05
2022-12-18T23:10:41.158Z,5.10
2022-12-18T23:13:11.477Z,6.90
2022-12-18T23:15:44.810Z,5.20
2022-12-18T23:18:15.441Z,7.20
2022-12-18T23:20:48.526Z,6.05
2022-12-18T23:23:19.277Z,4.70
2022-12-18T23:25:49.687Z,5.20
2022-12-18T23:28:19.908Z,5.35
2022-12-18T23:30:50.252Z,5.30
2022-12-18T23:33:20.615Z,5.38
2022-12-18T23:35:53.644Z,4.75
2022-12-18T23:38:23.890Z,4.72
2022-12-18T23:40:56.789Z,4.95
2022-12-18T23:43:27.819Z,4.63
2022-12-18T23:45:58.031Z,4.65
2022-12-18T23:48:28.295Z,5.03
2022-12-18T23:51:01.117Z,5.40
2022-12-18T23:53:31.385Z,6.18
2022-12-18T23:56:02.460Z,4.30
2022-12-18T23:58:35.333Z,5.15
